Flight Track Log - Related Links

Times and Time Zones

All times are in EDT time to prevent confusion due to time zone crossing. See the SKQ225 flight status page for this flight to view local times or setup timezone preferences in your user account.


Time Position Orientation Groundspeed Altitude Reporting Facility
EDT Latitude Longitude Course Direction KTS MPH feet Rate Location/Type
Thu 03:11:21 AM 38.1447 -85.6967 139° Southeast 147 169 1,600  Level FAA TRACON SMA TRACON (SMA)
Thu 03:11:42 AM 38.1350 -85.6869 142° Southeast 147 169 1,900 1,200 Climbing FAA TRACON SMA TRACON (SMA)
Thu 03:12:01 AM 38.1250 -85.6778 144° Southeast 144 166 2,400 1,538 Climbing FAA TRACON SMA TRACON (SMA)
Thu 03:12:21 AM 38.1131 -85.6675 146° Southeast 138 159 2,900 1,463 Climbing FAA TRACON SMA TRACON (SMA)
Thu 03:12:42 AM 38.1039 -85.6586 143° Southeast 136 157 3,400 1,200 Climbing FAA TRACON SMA TRACON (SMA)
Thu 03:13:01 AM 38.1025 -85.6450 97° East 143 165 3,700 769 Climbing FAA TRACON SMA TRACON (SMA)
Thu 03:13:21 AM 38.1111 -85.6294 55° Northeast 144 166 3,900 750 Climbing FAA TRACON SMA TRACON (SMA)
Thu 03:13:41 AM 38.1203 -85.6183 44° Northeast 148 170 4,200 900 Climbing FAA TRACON SMA TRACON (SMA)
Thu 03:14:01 AM 38.1292 -85.6061 47° Northeast 151 174 4,500 878 Climbing FAA TRACON SMA TRACON (SMA)
Thu 03:14:22 AM 38.1408 -85.5908 46° Northeast 155 178 4,800 900 Climbing FAA TRACON SMA TRACON (SMA)
Thu 03:14:41 AM 38.1503 -85.5789 45° Northeast 156 180 5,100 923 Climbing FAA TRACON SMA TRACON (SMA)
Thu 03:15:01 AM 38.1603 -85.5675 42° Northeast 158 182 5,400 878 Climbing FAA TRACON SMA TRACON (SMA)
Thu 03:15:22 AM 38.1722 -85.5517 46° Northeast 161 185 5,700 900 Climbing FAA TRACON SMA TRACON (SMA)
Thu 03:15:41 AM 38.1817 -85.5386 47° Northeast 162 186 6,000 900 Climbing FAA TRACON SMA TRACON (SMA)
Thu 03:16:02 AM 38.1942 -85.5236 43° Northeast 162 186 6,300 900 Climbing FAA TRACON SMA TRACON (SMA)
Thu 03:16:21 AM 38.2047 -85.5117 42° Northeast 163 188 6,600 769 Climbing FAA TRACON SMA TRACON (SMA)
Thu 03:16:41 AM 38.2147 -85.4983 46° Northeast 167 192 6,800 450 Climbing FAA TRACON SMA TRACON (SMA)
Thu 03:17:01 AM 38.2281 -85.4819 44° Northeast 175 201 6,900 293 Climbing FAA TRACON SMA TRACON (SMA)
Thu 03:17:22 AM 38.2403 -85.4681 42° Northeast 186 214 7,000 143 Climbing FAA TRACON SMA TRACON (SMA)
Thu 03:17:43 AM 38.2517 -85.4525 47° Northeast 194 223 7,000  Level FAA TRACON SMA TRACON (SMA)
Thu 03:18:01 AM 38.2664 -85.4331 46° Northeast 198 228 7,000  Level FAA TRACON SMA TRACON (SMA)
Thu 03:18:22 AM 38.2792 -85.4186 42° Northeast 198 228 7,000  Level FAA TRACON SMA TRACON (SMA)
Thu 03:18:41 AM 38.2917 -85.4039 43° Northeast 199 229 7,000  Level FAA TRACON SMA TRACON (SMA)
Thu 03:19:01 AM 38.3039 -85.3881 45° Northeast 201 231 7,000  Level FAA TRACON SMA TRACON (SMA)
Thu 03:19:22 AM 38.3189 -85.3689 45° Northeast 200 230 7,000  Level FAA TRACON SMA TRACON (SMA)
Thu 03:19:41 AM 38.3314 -85.3539 43° Northeast 201 231 7,000  Level FAA TRACON SMA TRACON (SMA)
Thu 03:20:02 AM 38.3464 -85.3347 45° Northeast 201 231 7,000  Level FAA TRACON SMA TRACON (SMA)
Thu 03:20:21 AM 38.3578 -85.3183 48° Northeast 200 230 7,000  Level FAA TRACON SMA TRACON (SMA)
Thu 03:20:41 AM 38.3706 -85.3036 42° Northeast 200 230 7,000 -146 Level FAA TRACON SMA TRACON (SMA)
Thu 03:21:02 AM 38.3864 -85.2844 43° Northeast 204 235 6,900 -150 Descending FAA TRACON SMA TRACON (SMA)
Thu 03:21:21 AM 38.3981 -85.2689 46° Northeast 203 234 6,900 140 Level FAA TRACON SMA TRACON (SMA)
Thu 03:21:45 AM 38.4139 -85.2497 43° Northeast 202 232 7,000 128 Climbing FAA TRACON SMA TRACON (SMA)
Thu 03:22:08 AM 38.4258 -85.2350 44° Northeast 198 228 7,000  Level FAA TRACON SMA TRACON (SMA)
Thu 03:22:24 AM 38.4417 -85.2167 42° Northeast 198 228 7,000  Level FAA TRACON SMA TRACON (SMA)
Thu 03:22:41 AM 38.4497 -85.2039 51° Northeast 199 229 7,000  Level FAA TRACON SMA TRACON (SMA)
Thu 03:23:01 AM 38.4650 -85.1853 44° Northeast 198 228 7,000  Level FAA TRACON SMA TRACON (SMA)
Thu 03:23:21 AM 38.4775 -85.1703 43° Northeast 199 229 7,000  Level FAA TRACON SMA TRACON (SMA)
Thu 03:23:42 AM 38.4894 -85.1547 46° Northeast 200 230 7,000  Level FAA TRACON SMA TRACON (SMA)
Thu 03:24:01 AM 38.5047 -85.1353 45° Northeast 202 232 7,000  Level FAA TRACON SMA TRACON (SMA)
Thu 03:24:22 AM 38.5167 -85.1197 46° Northeast 200 230 7,000  Level FAA TRACON SMA TRACON (SMA)
Thu 03:24:41 AM 38.5292 -85.1047 43° Northeast 200 230 7,000  Level FAA TRACON SMA TRACON (SMA)
Thu 03:25:01 AM 38.5442 -85.0853 45° Northeast 201 231 7,000  Level FAA TRACON SMA TRACON (SMA)
Thu 03:25:22 AM 38.5567 -85.0694 45° Northeast 202 232 7,000  Level FAA TRACON SMA TRACON (SMA)
Thu 03:25:41 AM 38.5689 -85.0542 44° Northeast 201 231 7,000  Level FAA TRACON SMA TRACON (SMA)
Thu 03:26:02 AM 38.5847 -85.0356 43° Northeast 202 232 7,000  Level FAA TRACON SMA TRACON (SMA)
Thu 03:26:24 AM 38.6000 -85.0156 46° Northeast 203 234 7,000  Level FAA TRACON SMA TRACON (SMA)
Thu 03:26:44 AM 38.6128 -85.0008 42° Northeast 202 232 7,000  Level FAA TRACON SMA TRACON (SMA)
Thu 03:27:01 AM 38.6247 -84.9856 45° Northeast 200 230 7,000  Level FAA TRACON SMA TRACON (SMA)
Thu 03:27:21 AM 38.6367 -84.9697 46° Northeast 201 231 7,000  Level FAA TRACON SMA TRACON (SMA)
Thu 03:27:42 AM 38.6514 -84.9494 47° Northeast 201 231 7,000  Level FAA TRACON SMA TRACON (SMA)
Thu 03:28:01 AM 38.6647 -84.9353 40° Northeast 201 231 7,000  Level FAA TRACON SMA TRACON (SMA)
Thu 03:28:21 AM 38.6772 -84.9197 44° Northeast 202 232 7,000 146 Level FAA TRACON SMA TRACON (SMA)
Thu 03:28:42 AM 38.6911 -84.8992 49° Northeast 200 230 7,100  Climbing FAA TRACON SMA TRACON (SMA)
Thu 03:29:01 AM 38.7039 -84.8836 44° Northeast 202 232 7,000 -150 Descending FAA TRACON SMA TRACON (SMA)
Thu 03:29:22 AM 38.7164 -84.8686 43° Northeast 203 234 7,000  Level FAA TRACON SMA TRACON (SMA)
Thu 03:29:41 AM 38.7294 -84.8533 42° Northeast 203 234 7,000  Level FAA TRACON SMA TRACON (SMA)
Thu 03:30:02 AM 38.7436 -84.8331 48° Northeast 202 232 7,000  Level FAA TRACON SMA TRACON (SMA)
Thu 03:30:22 AM 38.7564 -84.8181 42° Northeast 201 231 7,000  Level FAA TRACON SMA TRACON (SMA)
Thu 03:30:41 AM 38.7683 -84.8019 46° Northeast 202 232 7,000  Level FAA TRACON SMA TRACON (SMA)
Thu 03:31:02 AM 38.7842 -84.7828 43° Northeast 203 234 7,000  Level FAA TRACON SMA TRACON (SMA)
Thu 03:31:21 AM 38.7972 -84.7681 41° Northeast 202 232 7,000  Level FAA TRACON SMA TRACON (SMA)
Thu 03:31:38 AM 38.8000 -84.7500 79° East 203 234 7,000  Level Cincinnati TRACON
Thu 03:32:11 AM 38.8256 -84.7261 36° Northeast 201 231 7,000  Level Indianapolis Center
Thu 03:33:11 AM 38.8650 -84.6775 44° Northeast 197 227 7,000  Level Indianapolis Center
Thu 03:33:39 AM 38.8833 -84.6500 49° Northeast 200 230 7,000 68 Level Cincinnati TRACON
Thu 03:34:39 AM 38.9333 -84.6000 38° Northeast 199 229 7,100 50 Climbing Cincinnati TRACON
Thu 03:35:39 AM 38.9667 -84.5500 49° Northeast 199 229 7,100 -50 Level Cincinnati TRACON
Thu 03:36:39 AM 39.0000 -84.5000 49° Northeast 203 234 7,000 -48 Descending Cincinnati TRACON
Thu 03:37:45 AM 39.0500 -84.4333 46° Northeast 202 232 7,000  Level Cincinnati TRACON
Thu 03:38:45 AM 39.0833 -84.3833 49° Northeast 200 230 7,000  Level Cincinnati TRACON
Thu 03:39:13 AM 39.1036 -84.3703 27° Northeast 201 231 7,000  Level Indianapolis Center
Thu 03:40:13 AM 39.1419 -84.3175 47° Northeast 200 230 7,000  Level Indianapolis Center
Thu 03:41:13 AM 39.1817 -84.2658 45° Northeast 201 231 7,000  Level Indianapolis Center
Thu 03:42:14 AM 39.2225 -84.2131 45° Northeast 205 236 7,000  Level Indianapolis Center
Thu 03:42:47 AM 39.2450 -84.1850 44° Northeast 203 234 7,000  Level Indianapolis Center
Thu 03:43:14 AM 39.2619 -84.1617 47° Northeast 200 230 7,000  Level Indianapolis Center
Thu 03:43:35 AM 39.2736 -84.1428 51° Northeast 203 234 7,000  Level Indianapolis Center
Thu 03:44:14 AM 39.2947 -84.1186 42° Northeast 201 231 7,000  Level Indianapolis Center
Thu 03:44:36 AM 39.3131 -84.0942 46° Northeast 201 231 7,000  Level Indianapolis Center
Thu 03:45:15 AM 39.3356 -84.0656 45° Northeast 204 235 7,000  Level Indianapolis Center
Thu 03:45:36 AM 39.3528 -84.0425 46° Northeast 201 231 7,000  Level Indianapolis Center
Thu 03:46:15 AM 39.3750 -84.0142 45° Northeast 202 232 7,000  Level Indianapolis Center
Thu 03:46:31 AM 39.3897 -83.9961 43° Northeast 202 232 7,000  Level Indianapolis Center
Thu 03:47:15 AM 39.4133 -83.9606 49° Northeast 201 231 7,000  Level Indianapolis Center
Thu 03:47:31 AM 39.4297 -83.9417 42° Northeast 205 236 7,000  Level Indianapolis Center
Thu 03:48:15 AM 39.4550 -83.9094 45° Northeast 203 234 7,000  Level Indianapolis Center
Thu 03:48:32 AM 39.4717 -83.8850 49° Northeast 203 234 7,000  Level Indianapolis Center
Thu 03:49:16 AM 39.4950 -83.8553 45° Northeast 204 235 7,000  Level Indianapolis Center
Thu 03:49:33 AM 39.5114 -83.8333 46° Northeast 203 234 7,000  Level Indianapolis Center
Thu 03:50:16 AM 39.5353 -83.8022 45° Northeast 205 236 7,000  Level Indianapolis Center
Thu 03:50:33 AM 39.5508 -83.7814 46° Northeast 203 234 7,000  Level Indianapolis Center
Thu 03:51:16 AM 39.5750 -83.7494 46° Northeast 204 235 7,000  Level Indianapolis Center
Thu 03:51:34 AM 39.5925 -83.7297 41° Northeast 206 237 7,000  Level Indianapolis Center
Thu 03:52:17 AM 39.6150 -83.6953 50° Northeast 205 236 7,000  Level Indianapolis Center
Thu 03:52:35 AM 39.6322 -83.6750 42° Northeast 207 238 7,000  Level Indianapolis Center
Thu 03:53:17 AM 39.6556 -83.6419 47° Northeast 206 237 7,000 -100 Level Indianapolis Center
Thu 03:53:35 AM 39.6717 -83.6231 42° Northeast 210 242 6,900 -400 Descending Indianapolis Center
Thu 03:54:17 AM 39.6967 -83.5875 48° Northeast 208 239 6,600 -492 Descending Indianapolis Center
Thu 03:54:36 AM 39.7114 -83.5656 49° Northeast 216 249 6,400 -689 Descending Indianapolis Center
Thu 03:55:18 AM 39.7389 -83.5319 43° Northeast 213 245 5,900 -700 Descending Indianapolis Center
Thu 03:55:36 AM 39.7575 -83.5089 44° Northeast 213 245 5,700 -500 Descending Indianapolis Center
Thu 03:56:18 AM 39.7794 -83.4769 48° Northeast 212 244 5,400 -689 Descending Indianapolis Center
Thu 03:56:37 AM 39.7992 -83.4544 41° Northeast 206 237 5,000 -800 Descending Indianapolis Center
Thu 03:57:18 AM 39.8189 -83.4242 50° Northeast 209 241 4,600 -627 Descending Indianapolis Center
Thu 03:57:44 AM 39.8408 -83.3969 44° Northeast 211 243 4,300 -590 Descending Indianapolis Center
Thu 03:58:19 AM 39.8578 -83.3719 49° Northeast 206 237 4,000 -700 Descending Indianapolis Center
Thu 03:58:44 AM 39.8783 -83.3444 46° Northeast 196 226 3,600 -600 Descending Indianapolis Center
Thu 03:59:19 AM 39.8961 -83.3214 45° Northeast 201 231 3,400 -253 Descending Indianapolis Center
Thu 04:00:19 AM 39.9392 -83.2617 47° Northeast 200 230 3,200 -200 Descending Indianapolis Center

Login

Don't have an account? Register now (free) for customized features, flight alerts, and more!